Burketown, Australia
Current Conditions -  °F | °C
As of 8:00 PM on Sunday 21 Dec 2014 (Local Time) from YBMA Reporting Station
Clear Clear  
Wind Chill: 91°   Ceiling: Unl
Heat Index: 95°   Visibility: 6mi
Dew Point: 68°   Wind: 13mph
Humidity: 46%   Direction: 30°NNE
Pressure: 29.77"   Gusts: NA
Location:  17.74°S, 139.55°E
Report Text: YBMA 211000Z AUTO 03011KT 9999 // NCD 33/20 Q1008
Loading
Personal Weather Stations






























Interactive Weather Map New forecast layout! Learn more

10-Day Weather Forecast

Advertisements
Track Severe Weather on mobile